Artemis — PFCB — position and weather

sailwx.info

Track history (hours):
 
Tides and Currents Weather Stations Pressure Air Temp Water Temp Dewpoint Dewpoint Depression Visibility Wind Speed Wind Dir Waves Ship Positions

Artemis (Netherlands)

Ship's website: http://www.tallship-company.com/artemis/gb_artemis.htm

Last reported at 2018-Jun-19 19:49 UTC. Time now 2018-Jun-22 01:37 UTC.
Position N 54°23' E 010°11'.

Length 59 m; draft 3.4 m.

Type: Sailing vessel. MMSI: 244875000.

Date/timePositionNaut miles runAvg speedWind from/ knotsBaromVisibWave heightAir tempDewpointWater temp
2018-Jun-19 19:49N 54°23' E 010°11'1 0.2
2018-Jun-19 15:28N 54°22' E 010°10'  
2018-Jun-16 18:55N 54°19' E 010°08'1 2.4
2018-Jun-16 18:27N 54°20' E 010°09'3 5.9
2018-Jun-16 17:57N 54°23' E 010°11'1 0.1
2018-Jun-16 12:51N 54°22' E 010°10'1 3.8
2018-Jun-16 12:30N 54°23' E 010°12'2 3.9
2018-Jun-16 11:53N 54°26' E 010°12'6 0.2
2018-Jun-15 05:13N 54°22' E 010°05'2 7.4
2018-Jun-15 04:57N 54°22' E 010°01'3 7.5
2018-Jun-15 04:30N 54°20' E 009°56'4 7.7
2018-Jun-15 04:00N 54°22' E 009°50'4 7.5
2018-Jun-15 03:30N 54°20' E 009°44'3 6.8
2018-Jun-15 03:00N 54°18' E 009°40'4 7.0
2018-Jun-15 02:30N 54°15' E 009°37'4 7.4
2018-Jun-15 02:00N 54°12' E 009°33'4 7.8
2018-Jun-15 01:30N 54°10' E 009°27'4 7.8
2018-Jun-15 01:00N 54°09' E 009°21'4 7.6
2018-Jun-15 00:30N 54°05' E 009°19'4 7.7
2018-Jun-15 00:00N 54°01' E 009°18'4 7.8
2018-Jun-14 23:30N 53°58' E 009°15'4 7.8
2018-Jun-14 23:00N 53°55' E 009°11'2 3.1
2018-Jun-14 22:30N 53°54' E 009°09'1 1.4
2018-Jun-14 22:00N 53°53' E 009°10'3 6.0
2018-Jun-14 21:30N 53°53' E 009°15'4 7.9
2018-Jun-14 21:00N 53°51' E 009°20'5 9.6
2018-Jun-14 20:30N 53°46' E 009°24'5 9.3
2018-Jun-14 20:00N 53°43' E 009°29'5 9.9
2018-Jun-14 19:30N 53°38' E 009°32'5 9.7
2018-Jun-14 19:00N 53°35' E 009°38'5 9.8
2018-Jun-14 18:30N 53°34' E 009°46'5 9.6
2018-Jun-14 18:00N 53°33' E 009°54'3 6.2
2018-Jun-14 17:30N 53°33' E 009°59'0 0.0
2018-Jun-14 17:00N 53°33' E 009°59'1 1.3
2018-Jun-14 16:30N 53°33' E 009°58'4 7.7
2018-Jun-14 16:00N 53°33' E 009°51'4 8.7
2018-Jun-14 15:30N 53°34' E 009°44'4 7.4
2018-Jun-14 15:00N 53°34' E 009°38'0 0.0
2018-Jun-14 14:30N 53°34' E 009°38'0 0.1
2018-Jun-14 14:00N 53°34' E 009°38'0 0.2
2018-Jun-14 13:30N 53°34' E 009°38'1 2.9
2018-Jun-14 13:00N 53°34' E 009°41'2 5.0
2018-Jun-14 12:30N 53°34' E 009°45'2 4.4
2018-Jun-14 12:00N 53°33' E 009°48'2 4.3
2018-Jun-14 11:30N 53°33' E 009°52'3 5.1
2018-Jun-14 11:00N 53°33' E 009°56'2 3.1
2018-Jun-14 10:29N 53°33' E 009°59'0 0.0
2018-Jun-14 09:59N 53°33' E 009°59'0 0.0
2018-Jun-14 09:29N 53°33' E 009°59'0 0.0
2018-Jun-14 08:59N 53°33' E 009°59'0 0.0
2018-Jun-14 08:29N 53°33' E 009°59'0 0.0
2018-Jun-14 07:59N 53°32' E 009°59'0 0.3
2018-Jun-14 07:29N 53°33' E 009°59'0 0.0
2018-Jun-14 06:59N 53°33' E 009°59'0 0.0
2018-Jun-14 06:29N 53°33' E 009°59'0 0.0
2018-Jun-14 05:59N 53°33' E 009°59'0 0.0
2018-Jun-14 05:29N 53°33' E 009°59'0 0.0
2018-Jun-14 04:59N 53°33' E 009°59'0 0.0
2018-Jun-14 04:29N 53°33' E 009°59'0 0.0
2018-Jun-14 03:59N 53°33' E 009°59'0 0.0
2018-Jun-14 03:29N 53°33' E 009°59'0 0.0
2018-Jun-14 02:59N 53°33' E 009°59'0 0.0
2018-Jun-14 02:29N 53°33' E 009°59'0 0.0
2018-Jun-14 01:59N 53°33' E 009°59'0 0.0
2018-Jun-14 01:29N 53°33' E 009°59'0 0.0
2018-Jun-14 00:59N 53°33' E 009°59'0 0.0
2018-Jun-14 00:29N 53°33' E 009°59'0 0.0
2018-Jun-13 23:59N 53°33' E 009°59'0 0.0
2018-Jun-13 23:29N 53°33' E 009°59'0 0.0
2018-Jun-13 22:59N 53°33' E 009°59'0 0.0
2018-Jun-13 22:29N 53°33' E 009°59'0 0.0
2018-Jun-13 21:59N 53°33' E 009°59'0 0.0
2018-Jun-13 21:29N 53°33' E 009°59'0 0.0
2018-Jun-13 20:59N 53°33' E 009°59'0 0.0
2018-Jun-13 20:29N 53°33' E 009°59'0 0.0
2018-Jun-13 19:59N 53°33' E 009°59'0 0.0
2018-Jun-13 19:29N 53°33' E 009°59'0 0.0
2018-Jun-13 18:59N 53°33' E 009°59'0 0.0
2018-Jun-13 18:29N 53°33' E 009°59'0 0.0
2018-Jun-13 17:59N 53°33' E 009°59'0 0.0
2018-Jun-13 17:29N 53°33' E 009°59'0 0.2
2018-Jun-13 17:00N 53°33' E 009°59'2 4.3
2018-Jun-13 16:30N 53°32' E 009°55'3 6.4
2018-Jun-13 16:00N 53°33' E 009°50'4 7.3
2018-Jun-13 15:30N 53°34' E 009°44'4 8.0
2018-Jun-13 15:00N 53°35' E 009°37'4 8.5
2018-Jun-13 14:30N 53°38' E 009°32'5 9.3
2018-Jun-13 14:00N 53°42' E 009°29'5 9.7
2018-Jun-13 13:31N 53°46' E 009°24'5 9.9
2018-Jun-13 13:00N 53°50' E 009°20'510.3
2018-Jun-13 12:30N 53°53' E 009°13'3 5.3
2018-Jun-13 12:00N 53°54' E 009°09'0 0.0
2018-Jun-13 11:30N 53°54' E 009°09'0 0.9
2018-Jun-13 11:00N 53°54' E 009°09'0 0.9
2018-Jun-13 10:30N 53°54' E 009°10'2 4.2
2018-Jun-13 10:00N 53°56' E 009°12'4 7.5
2018-Jun-13 09:30N 53°59' E 009°16'4 7.9
2018-Jun-13 09:00N 54°03' E 009°18'4 8.0
2018-Jun-13 08:30N 54°07' E 009°20'3 6.8
2018-Jun-13 08:00N 54°09' E 009°23'3 6.3
2018-Jun-13 07:30N 54°11' E 009°28'4 7.5
2018-Jun-13 07:00N 54°12' E 009°34'4 7.4
2018-Jun-13 06:30N 54°15' E 009°37'3 6.8
2018-Jun-13 06:00N 54°18' E 009°41'2 4.8
2018-Jun-13 05:30N 54°20' E 009°43'3 6.2
2018-Jun-13 05:00N 54°22' E 009°48'13 0.3
2018-Jun-11 11:55N 54°22' E 010°10'8 3.2
2018-Jun-11 09:18N 54°30' E 010°08'3 4.7
2018-Jun-11 08:35N 54°30' E 010°02'1 5.3
2018-Jun-11 08:29N 54°30' E 010°01'3 5.3
2018-Jun-11 07:59N 54°29' E 009°57'3 4.9
2018-Jun-11 07:28N 54°28' E 009°53'1 3.1
2018-Jun-11 07:00N 54°28' E 009°51'0 0.0
2018-Jun-11 06:30N 54°28' E 009°51'0 0.0
2018-Jun-11 05:59N 54°28' E 009°51'0 0.0
2018-Jun-11 05:30N 54°28' E 009°51'0 0.0
2018-Jun-11 05:01N 54°28' E 009°51'0 0.0
2018-Jun-11 04:30N 54°28' E 009°51'0 0.0
2018-Jun-11 04:00N 54°28' E 009°51'0 0.0
2018-Jun-11 03:30N 54°28' E 009°51'0 0.0
2018-Jun-11 03:00N 54°28' E 009°51'0 0.0
2018-Jun-11 02:29N 54°28' E 009°51'0 0.0
2018-Jun-11 01:59N 54°28' E 009°51'0 0.0
2018-Jun-11 01:30N 54°28' E 009°51'0 0.0
2018-Jun-11 01:00N 54°28' E 009°51'0 0.0
2018-Jun-11 00:30N 54°28' E 009°51'0 0.0
2018-Jun-11 00:01N 54°28' E 009°51'0 0.0
2018-Jun-10 23:30N 54°28' E 009°51'0 0.0
2018-Jun-10 23:00N 54°28' E 009°51'0 0.0
2018-Jun-10 22:30N 54°28' E 009°51'0 0.0
2018-Jun-10 22:00N 54°28' E 009°51'0 0.0
2018-Jun-10 21:30N 54°28' E 009°51'0 0.0
2018-Jun-10 21:00N 54°28' E 009°51'0 0.0
2018-Jun-10 20:30N 54°28' E 009°51'0 0.0
2018-Jun-10 19:58N 54°28' E 009°51'0 0.0
2018-Jun-10 19:30N 54°28' E 009°51'0 0.0
2018-Jun-10 19:00N 54°28' E 009°51'0 0.0
2018-Jun-10 18:30N 54°28' E 009°51'0 0.0
2018-Jun-10 18:00N 54°28' E 009°51'0 0.0
2018-Jun-10 17:30N 54°28' E 009°51'0 0.0
2018-Jun-10 17:00N 54°28' E 009°51'0 0.0
2018-Jun-10 16:30N 54°28' E 009°51'1 0.7
2018-Jun-10 15:16N 54°28' E 009°52'2 6.2
2018-Jun-10 15:00N 54°29' E 009°55'6 6.5
2018-Jun-10 14:00N 54°33' E 010°04'4 6.3
2018-Jun-10 13:23N 54°36' E 010°04'2 6.3
2018-Jun-10 13:00N 54°39' E 010°04'3 5.8
2018-Jun-10 12:31N 54°42' E 010°04'3 6.1
2018-Jun-10 12:00N 54°45' E 010°02'3 5.9
2018-Jun-10 11:30N 54°47' E 009°60'1 2.5
2018-Jun-10 11:00N 54°48' E 009°58'2 3.7
2018-Jun-10 10:31N 54°49' E 009°56'2 3.9
2018-Jun-10 09:56N 54°51' E 009°53'1 2.9
2018-Jun-10 09:30N 54°52' E 009°51'2 3.1
2018-Jun-10 09:01N 54°53' E 009°49'1 2.8
2018-Jun-10 08:30N 54°53' E 009°47'1 2.7
2018-Jun-10 08:01N 54°55' E 009°47'0 0.0
2018-Jun-10 05:13N 54°55' E 009°47'0 0.0
2018-Jun-10 04:52N 54°55' E 009°47'0 0.0
2018-Jun-10 04:16N 54°55' E 009°47'0 0.0
2018-Jun-10 03:55N 54°55' E 009°47'0 0.0
2018-Jun-10 03:22N 54°55' E 009°47'0 0.0
2018-Jun-10 02:55N 54°55' E 009°47'0 0.0
2018-Jun-10 02:22N 54°55' E 009°47'0 0.0
2018-Jun-10 01:55N 54°55' E 009°47'0 0.0
2018-Jun-10 01:28N 54°55' E 009°47'0 0.0
2018-Jun-10 00:58N 54°55' E 009°47'0 0.0
2018-Jun-10 00:25N 54°55' E 009°47'0 0.0
2018-Jun-09 22:43N 54°55' E 009°47'0 0.0
2018-Jun-09 20:34N 54°55' E 009°47'0 0.0
2018-Jun-09 20:25N 54°55' E 009°47'  
Track history (hours):
 
Tides and Currents Weather Stations Pressure Air Temp Water Temp Dewpoint Dewpoint Depression Visibility Wind Speed Wind Dir Waves Ship Positions

Artemis (Netherlands)

Ship's website: http://www.tallship-company.com/artemis/gb_artemis.htm

Last reported at 2018-Jun-19 19:49 UTC. Time now 2018-Jun-22 01:37 UTC.
Position N 54°23' E 010°11'.

Length 59 m; draft 3.4 m.

Type: Sailing vessel. MMSI: 244875000.

Date/timePositionNaut miles runAvg speedWind from/ knotsBaromVisibWave heightAir tempDewpointWater temp
2018-Jun-19 19:49N 54°23' E 010°11'1 0.2
2018-Jun-19 15:28N 54°22' E 010°10'  
2018-Jun-16 18:55N 54°19' E 010°08'1 2.4
2018-Jun-16 18:27N 54°20' E 010°09'3 5.9
2018-Jun-16 17:57N 54°23' E 010°11'1 0.1
2018-Jun-16 12:51N 54°22' E 010°10'1 3.8
2018-Jun-16 12:30N 54°23' E 010°12'2 3.9
2018-Jun-16 11:53N 54°26' E 010°12'6 0.2
2018-Jun-15 05:13N 54°22' E 010°05'2 7.4
2018-Jun-15 04:57N 54°22' E 010°01'3 7.5
2018-Jun-15 04:30N 54°20' E 009°56'4 7.7
2018-Jun-15 04:00N 54°22' E 009°50'4 7.5
2018-Jun-15 03:30N 54°20' E 009°44'3 6.8
2018-Jun-15 03:00N 54°18' E 009°40'4 7.0
2018-Jun-15 02:30N 54°15' E 009°37'4 7.4
2018-Jun-15 02:00N 54°12' E 009°33'4 7.8
2018-Jun-15 01:30N 54°10' E 009°27'4 7.8
2018-Jun-15 01:00N 54°09' E 009°21'4 7.6
2018-Jun-15 00:30N 54°05' E 009°19'4 7.7
2018-Jun-15 00:00N 54°01' E 009°18'4 7.8
2018-Jun-14 23:30N 53°58' E 009°15'4 7.8
2018-Jun-14 23:00N 53°55' E 009°11'2 3.1
2018-Jun-14 22:30N 53°54' E 009°09'1 1.4
2018-Jun-14 22:00N 53°53' E 009°10'3 6.0
2018-Jun-14 21:30N 53°53' E 009°15'4 7.9
2018-Jun-14 21:00N 53°51' E 009°20'5 9.6
2018-Jun-14 20:30N 53°46' E 009°24'5 9.3
2018-Jun-14 20:00N 53°43' E 009°29'5 9.9
2018-Jun-14 19:30N 53°38' E 009°32'5 9.7
2018-Jun-14 19:00N 53°35' E 009°38'5 9.8
2018-Jun-14 18:30N 53°34' E 009°46'5 9.6
2018-Jun-14 18:00N 53°33' E 009°54'3 6.2
2018-Jun-14 17:30N 53°33' E 009°59'0 0.0
2018-Jun-14 17:00N 53°33' E 009°59'1 1.3
2018-Jun-14 16:30N 53°33' E 009°58'4 7.7
2018-Jun-14 16:00N 53°33' E 009°51'4 8.7
2018-Jun-14 15:30N 53°34' E 009°44'4 7.4
2018-Jun-14 15:00N 53°34' E 009°38'0 0.0
2018-Jun-14 14:30N 53°34' E 009°38'0 0.1
2018-Jun-14 14:00N 53°34' E 009°38'0 0.2
2018-Jun-14 13:30N 53°34' E 009°38'1 2.9
2018-Jun-14 13:00N 53°34' E 009°41'2 5.0
2018-Jun-14 12:30N 53°34' E 009°45'2 4.4
2018-Jun-14 12:00N 53°33' E 009°48'2 4.3
2018-Jun-14 11:30N 53°33' E 009°52'3 5.1
2018-Jun-14 11:00N 53°33' E 009°56'2 3.1
2018-Jun-14 10:29N 53°33' E 009°59'0 0.0
2018-Jun-14 09:59N 53°33' E 009°59'0 0.0
2018-Jun-14 09:29N 53°33' E 009°59'0 0.0
2018-Jun-14 08:59N 53°33' E 009°59'0 0.0
2018-Jun-14 08:29N 53°33' E 009°59'0 0.0
2018-Jun-14 07:59N 53°32' E 009°59'0 0.3
2018-Jun-14 07:29N 53°33' E 009°59'0 0.0
2018-Jun-14 06:59N 53°33' E 009°59'0 0.0
2018-Jun-14 06:29N 53°33' E 009°59'0 0.0
2018-Jun-14 05:59N 53°33' E 009°59'0 0.0
2018-Jun-14 05:29N 53°33' E 009°59'0 0.0
2018-Jun-14 04:59N 53°33' E 009°59'0 0.0
2018-Jun-14 04:29N 53°33' E 009°59'0 0.0
2018-Jun-14 03:59N 53°33' E 009°59'0 0.0
2018-Jun-14 03:29N 53°33' E 009°59'0 0.0
2018-Jun-14 02:59N 53°33' E 009°59'0 0.0
2018-Jun-14 02:29N 53°33' E 009°59'0 0.0
2018-Jun-14 01:59N 53°33' E 009°59'0 0.0
2018-Jun-14 01:29N 53°33' E 009°59'0 0.0
2018-Jun-14 00:59N 53°33' E 009°59'0 0.0
2018-Jun-14 00:29N 53°33' E 009°59'0 0.0
2018-Jun-13 23:59N 53°33' E 009°59'0 0.0
2018-Jun-13 23:29N 53°33' E 009°59'0 0.0
2018-Jun-13 22:59N 53°33' E 009°59'0 0.0
2018-Jun-13 22:29N 53°33' E 009°59'0 0.0
2018-Jun-13 21:59N 53°33' E 009°59'0 0.0
2018-Jun-13 21:29N 53°33' E 009°59'0 0.0
2018-Jun-13 20:59N 53°33' E 009°59'0 0.0
2018-Jun-13 20:29N 53°33' E 009°59'0 0.0
2018-Jun-13 19:59N 53°33' E 009°59'0 0.0
2018-Jun-13 19:29N 53°33' E 009°59'0 0.0
2018-Jun-13 18:59N 53°33' E 009°59'0 0.0
2018-Jun-13 18:29N 53°33' E 009°59'0 0.0
2018-Jun-13 17:59N 53°33' E 009°59'0 0.0
2018-Jun-13 17:29N 53°33' E 009°59'0 0.2
2018-Jun-13 17:00N 53°33' E 009°59'2 4.3
2018-Jun-13 16:30N 53°32' E 009°55'3 6.4
2018-Jun-13 16:00N 53°33' E 009°50'4 7.3
2018-Jun-13 15:30N 53°34' E 009°44'4 8.0
2018-Jun-13 15:00N 53°35' E 009°37'4 8.5
2018-Jun-13 14:30N 53°38' E 009°32'5 9.3
2018-Jun-13 14:00N 53°42' E 009°29'5 9.7
2018-Jun-13 13:31N 53°46' E 009°24'5 9.9
2018-Jun-13 13:00N 53°50' E 009°20'510.3
2018-Jun-13 12:30N 53°53' E 009°13'3 5.3
2018-Jun-13 12:00N 53°54' E 009°09'0 0.0
2018-Jun-13 11:30N 53°54' E 009°09'0 0.9
2018-Jun-13 11:00N 53°54' E 009°09'0 0.9
2018-Jun-13 10:30N 53°54' E 009°10'2 4.2
2018-Jun-13 10:00N 53°56' E 009°12'4 7.5
2018-Jun-13 09:30N 53°59' E 009°16'4 7.9
2018-Jun-13 09:00N 54°03' E 009°18'4 8.0
2018-Jun-13 08:30N 54°07' E 009°20'3 6.8
2018-Jun-13 08:00N 54°09' E 009°23'3 6.3
2018-Jun-13 07:30N 54°11' E 009°28'4 7.5
2018-Jun-13 07:00N 54°12' E 009°34'4 7.4
2018-Jun-13 06:30N 54°15' E 009°37'3 6.8
2018-Jun-13 06:00N 54°18' E 009°41'2 4.8
2018-Jun-13 05:30N 54°20' E 009°43'3 6.2
2018-Jun-13 05:00N 54°22' E 009°48'13 0.3
2018-Jun-11 11:55N 54°22' E 010°10'8 3.2
2018-Jun-11 09:18N 54°30' E 010°08'3 4.7
2018-Jun-11 08:35N 54°30' E 010°02'1 5.3
2018-Jun-11 08:29N 54°30' E 010°01'3 5.3
2018-Jun-11 07:59N 54°29' E 009°57'3 4.9
2018-Jun-11 07:28N 54°28' E 009°53'1 3.1
2018-Jun-11 07:00N 54°28' E 009°51'0 0.0
2018-Jun-11 06:30N 54°28' E 009°51'0 0.0
2018-Jun-11 05:59N 54°28' E 009°51'0 0.0
2018-Jun-11 05:30N 54°28' E 009°51'0 0.0
2018-Jun-11 05:01N 54°28' E 009°51'0 0.0
2018-Jun-11 04:30N 54°28' E 009°51'0 0.0
2018-Jun-11 04:00N 54°28' E 009°51'0 0.0
2018-Jun-11 03:30N 54°28' E 009°51'0 0.0
2018-Jun-11 03:00N 54°28' E 009°51'0 0.0
2018-Jun-11 02:29N 54°28' E 009°51'0 0.0
2018-Jun-11 01:59N 54°28' E 009°51'0 0.0
2018-Jun-11 01:30N 54°28' E 009°51'0 0.0
2018-Jun-11 01:00N 54°28' E 009°51'0 0.0
2018-Jun-11 00:30N 54°28' E 009°51'0 0.0
2018-Jun-11 00:01N 54°28' E 009°51'0 0.0
2018-Jun-10 23:30N 54°28' E 009°51'0 0.0
2018-Jun-10 23:00N 54°28' E 009°51'0 0.0
2018-Jun-10 22:30N 54°28' E 009°51'0 0.0
2018-Jun-10 22:00N 54°28' E 009°51'0 0.0
2018-Jun-10 21:30N 54°28' E 009°51'0 0.0
2018-Jun-10 21:00N 54°28' E 009°51'0 0.0
2018-Jun-10 20:30N 54°28' E 009°51'0 0.0
2018-Jun-10 19:58N 54°28' E 009°51'0 0.0
2018-Jun-10 19:30N 54°28' E 009°51'0 0.0
2018-Jun-10 19:00N 54°28' E 009°51'0 0.0
2018-Jun-10 18:30N 54°28' E 009°51'0 0.0
2018-Jun-10 18:00N 54°28' E 009°51'0 0.0
2018-Jun-10 17:30N 54°28' E 009°51'0 0.0
2018-Jun-10 17:00N 54°28' E 009°51'0 0.0
2018-Jun-10 16:30N 54°28' E 009°51'1 0.7
2018-Jun-10 15:16N 54°28' E 009°52'2 6.2
2018-Jun-10 15:00N 54°29' E 009°55'6 6.5
2018-Jun-10 14:00N 54°33' E 010°04'4 6.3
2018-Jun-10 13:23N 54°36' E 010°04'2 6.3
2018-Jun-10 13:00N 54°39' E 010°04'3 5.8
2018-Jun-10 12:31N 54°42' E 010°04'3 6.1
2018-Jun-10 12:00N 54°45' E 010°02'3 5.9
2018-Jun-10 11:30N 54°47' E 009°60'1 2.5
2018-Jun-10 11:00N 54°48' E 009°58'2 3.7
2018-Jun-10 10:31N 54°49' E 009°56'2 3.9
2018-Jun-10 09:56N 54°51' E 009°53'1 2.9
2018-Jun-10 09:30N 54°52' E 009°51'2 3.1
2018-Jun-10 09:01N 54°53' E 009°49'1 2.8
2018-Jun-10 08:30N 54°53' E 009°47'1 2.7
2018-Jun-10 08:01N 54°55' E 009°47'0 0.0
2018-Jun-10 05:13N 54°55' E 009°47'0 0.0
2018-Jun-10 04:52N 54°55' E 009°47'0 0.0
2018-Jun-10 04:16N 54°55' E 009°47'0 0.0
2018-Jun-10 03:55N 54°55' E 009°47'0 0.0
2018-Jun-10 03:22N 54°55' E 009°47'0 0.0
2018-Jun-10 02:55N 54°55' E 009°47'0 0.0
2018-Jun-10 02:22N 54°55' E 009°47'0 0.0
2018-Jun-10 01:55N 54°55' E 009°47'0 0.0
2018-Jun-10 01:28N 54°55' E 009°47'0 0.0
2018-Jun-10 00:58N 54°55' E 009°47'0 0.0
2018-Jun-10 00:25N 54°55' E 009°47'0 0.0
2018-Jun-09 22:43N 54°55' E 009°47'0 0.0
2018-Jun-09 20:34N 54°55' E 009°47'0 0.0
2018-Jun-09 20:25N 54°55' E 009°47'  

Dump ship's entire track history